VOCB/CJB METAR and TAF weather

Enter ICAO airport designator
Station Type Date Time Source
VOCB METAR 2020/06/03 21:00 UTC NOAA

VOCB 032100Z 20004KT 5000 HZ FEW015 26/22 Q1010 NOSIG


Station Type Date Time Source
VOCB Decoded METAR 2020/06/03 21:00 UTC NOAA

Coimbatore / Peelamedu, India (VOCB) 11-02N 077-03E 399M
Jun 03, 2020 - 05:00 PM EDT / 2020.06.03 2100 UTC
Wind: from the SSW (200 degrees) at 5 MPH (4 KT):0
Visibility: 3 mile(s):0
Sky conditions: mostly clear
Weather: haze
Temperature: 78 F (26 C)
Dew Point: 71 F (22 C)
Relative Humidity: 78%
Pressure (altimeter): 29.83 in. Hg (1010 hPa)
ob: VOCB 032100Z 20004KT 5000 HZ FEW015 26/22 Q1010 NOSIG
cycle: 21

Station Type Date Time Source
VOCB TAF 2020/06/03 18:00 UTC NOAA

TAF VOCB 031700Z 0318/0424 20010KT 5000 HZ SCT015 SCT080
TEMPO 0321/0403 3000 DZ/BR
BECMG 0403/0404 6000
BECMG 0415/0416 5000 HZ
TEMPO 0421/0424 SCT015 FEW025CB BKN080

Example: see airport list